sim
Sign-in with your pilot id or email,
or register
Callsign
Passwort

Schedule Details

Flight Number: RYR5714 (1)
Departure: Weeze Airport (EDLV) at 08:25
Arrival: Thessaloniki International Airport (LGTS) at 11:10
Route: Ryanair Passenger Schedule. Enter filed route here before submitting Pirep.

Weather Information
Getting current METAR information for EDLV 172150Z 25007KT 9999 BKN034 17/16 Q1007
Getting current METAR information for LGTS 172250Z 11004KT 9999 FEW025 21/16 Q1015 NOSIG

Schedule Frequency

Route Map